createdAt,value
2018-03-21T00:00:23.556Z,1021.65
2018-03-21T00:00:49.689Z,1021.69
2018-03-21T00:01:15.827Z,1021.61
2018-03-21T00:01:41.966Z,1021.66
2018-03-21T00:02:08.094Z,1021.67
2018-03-21T00:02:34.224Z,1021.66
2018-03-21T00:03:00.363Z,1021.61
2018-03-21T00:03:26.499Z,1021.63
2018-03-21T00:03:52.634Z,1021.68
2018-03-21T00:04:18.773Z,1021.68
2018-03-21T00:04:44.916Z,1021.68
2018-03-21T00:05:11.047Z,1021.67
2018-03-21T00:05:37.195Z,1021.69
2018-03-21T00:06:03.353Z,1021.71
2018-03-21T00:06:29.490Z,1021.68
2018-03-21T00:06:55.635Z,1021.67
2018-03-21T00:07:21.766Z,1021.66
2018-03-21T00:07:47.897Z,1021.69
2018-03-21T00:08:14.056Z,1021.66
2018-03-21T00:08:40.218Z,1021.7
2018-03-21T00:09:06.325Z,1021.72
2018-03-21T00:09:32.467Z,1021.69
2018-03-21T00:09:58.598Z,1021.72
2018-03-21T00:10:24.734Z,1021.71
2018-03-21T00:10:50.893Z,1021.74
2018-03-21T00:11:17.036Z,1021.75
2018-03-21T00:11:43.170Z,1021.77
2018-03-21T00:12:09.338Z,1021.76
2018-03-21T00:12:35.510Z,1021.75
2018-03-21T00:13:01.622Z,1021.73
2018-03-21T00:13:27.760Z,1021.76
2018-03-21T00:13:53.923Z,1021.75
2018-03-21T00:14:20.097Z,1021.75
2018-03-21T00:14:46.251Z,1021.72
2018-03-21T00:15:12.395Z,1021.73
2018-03-21T00:15:38.529Z,1021.7
2018-03-21T00:16:04.660Z,1021.75
2018-03-21T00:16:30.795Z,1021.73
2018-03-21T00:16:56.925Z,1021.73
2018-03-21T00:17:23.111Z,1021.72
2018-03-21T00:17:49.241Z,1021.73
2018-03-21T00:18:15.384Z,1021.73
2018-03-21T00:18:41.532Z,1021.74
2018-03-21T00:19:07.701Z,1021.74
2018-03-21T00:19:33.819Z,1021.72
2018-03-21T00:19:59.974Z,1021.73
2018-03-21T00:20:26.102Z,1021.69
2018-03-21T00:20:52.234Z,1021.71
2018-03-21T00:21:18.370Z,1021.68
2018-03-21T00:21:44.504Z,1021.7
2018-03-21T00:22:10.644Z,1021.69
2018-03-21T00:22:36.788Z,1021.69
2018-03-21T00:23:02.922Z,1021.7
2018-03-21T00:23:29.065Z,1021.7
2018-03-21T00:23:55.201Z,1021.71
2018-03-21T00:24:21.339Z,1021.7
2018-03-21T00:24:47.478Z,1021.7
2018-03-21T00:25:13.630Z,1021.68
2018-03-21T00:25:39.823Z,1021.69
2018-03-21T00:26:05.958Z,1021.66
2018-03-21T00:26:32.091Z,1021.7
2018-03-21T00:26:58.254Z,1021.7
2018-03-21T00:27:24.407Z,1021.69
2018-03-21T00:27:50.539Z,1021.72
2018-03-21T00:28:16.679Z,1021.71
2018-03-21T00:28:42.830Z,1021.7
2018-03-21T00:29:08.989Z,1021.72
2018-03-21T00:29:35.123Z,1021.69
2018-03-21T00:30:01.268Z,1021.77
2018-03-21T00:30:27.398Z,1021.79
2018-03-21T00:30:53.537Z,1021.78
2018-03-21T00:31:19.675Z,1021.73
2018-03-21T00:31:45.818Z,1021.76
2018-03-21T00:32:11.949Z,1021.74
2018-03-21T00:32:38.091Z,1021.71
2018-03-21T00:33:04.216Z,1021.79
2018-03-21T00:33:30.355Z,1021.78
2018-03-21T00:33:56.493Z,1021.75
2018-03-21T00:34:22.651Z,1021.76
2018-03-21T00:34:48.818Z,1021.77
2018-03-21T00:35:14.977Z,1021.78
2018-03-21T00:35:41.109Z,1021.78
2018-03-21T00:36:07.246Z,1021.79
2018-03-21T00:36:33.382Z,1021.79
2018-03-21T00:36:59.539Z,1021.77
2018-03-21T00:37:25.679Z,1021.78
2018-03-21T00:37:51.812Z,1021.79
2018-03-21T00:38:17.968Z,1021.82
2018-03-21T00:38:44.106Z,1021.81
2018-03-21T00:39:10.245Z,1021.77
2018-03-21T00:39:36.400Z,1021.76
2018-03-21T00:40:02.534Z,1021.76
2018-03-21T00:40:28.671Z,1021.79
2018-03-21T00:40:54.810Z,1021.85
2018-03-21T00:41:20.940Z,1021.83
2018-03-21T00:41:47.082Z,1021.84
2018-03-21T00:42:13.213Z,1021.85
2018-03-21T00:42:39.344Z,1021.85
2018-03-21T00:43:05.481Z,1021.81
2018-03-21T00:43:31.618Z,1021.84
2018-03-21T00:43:57.754Z,1021.83
2018-03-21T00:44:23.890Z,1021.85
2018-03-21T00:44:50.026Z,1021.87
2018-03-21T00:45:16.158Z,1021.82
2018-03-21T00:45:42.314Z,1021.82
2018-03-21T00:46:08.451Z,1021.86
2018-03-21T00:46:34.585Z,1021.87
2018-03-21T00:47:00.748Z,1021.87
2018-03-21T00:47:26.905Z,1021.84
2018-03-21T00:47:53.046Z,1021.88
2018-03-21T00:48:19.175Z,1021.85
2018-03-21T00:48:45.314Z,1021.85
2018-03-21T00:49:11.451Z,1021.85
2018-03-21T00:49:37.581Z,1021.83
2018-03-21T00:50:03.723Z,1021.82
2018-03-21T00:50:29.864Z,1021.85
2018-03-21T00:50:55.993Z,1021.86
2018-03-21T00:51:22.162Z,1021.82
2018-03-21T00:51:48.301Z,1021.88
2018-03-21T00:52:14.432Z,1021.87
2018-03-21T00:52:40.567Z,1021.87
2018-03-21T00:53:06.702Z,1021.87
2018-03-21T00:53:32.839Z,1021.85
2018-03-21T00:53:58.975Z,1021.84
2018-03-21T00:54:25.111Z,1021.84
2018-03-21T00:54:51.247Z,1021.81
2018-03-21T00:55:17.402Z,1021.83
2018-03-21T00:55:43.541Z,1021.8
2018-03-21T00:56:09.675Z,1021.82
2018-03-21T00:56:35.809Z,1021.78
2018-03-21T00:57:01.947Z,1021.81
2018-03-21T00:57:28.079Z,1021.78
2018-03-21T00:57:54.224Z,1021.76
2018-03-21T00:58:20.363Z,1021.76
2018-03-21T00:58:46.490Z,1021.77
2018-03-21T00:59:12.627Z,1021.78
2018-03-21T00:59:38.761Z,1021.74
2018-03-21T01:00:04.897Z,1021.77
2018-03-21T01:00:31.030Z,1021.77
2018-03-21T01:00:57.166Z,1021.74
2018-03-21T01:01:23.302Z,1021.78
2018-03-21T01:01:49.442Z,1021.78
2018-03-21T01:02:15.574Z,1021.78
2018-03-21T01:02:41.733Z,1021.79
2018-03-21T01:03:07.871Z,1021.79
2018-03-21T01:03:33.999Z,1021.78
2018-03-21T01:04:00.139Z,1021.76
2018-03-21T01:04:26.279Z,1021.77
2018-03-21T01:04:52.436Z,1021.79
2018-03-21T01:05:18.576Z,1021.78
2018-03-21T01:05:44.726Z,1021.8
2018-03-21T01:06:10.865Z,1021.78
2018-03-21T01:06:37.024Z,1021.79
2018-03-21T01:07:03.157Z,1021.83
2018-03-21T01:07:29.317Z,1021.84
2018-03-21T01:07:55.456Z,1021.82
2018-03-21T01:08:21.594Z,1021.85
2018-03-21T01:08:47.726Z,1021.83
2018-03-21T01:09:13.864Z,1021.8
2018-03-21T01:09:39.995Z,1021.82
2018-03-21T01:10:06.126Z,1021.81
2018-03-21T01:10:32.259Z,1021.84
2018-03-21T01:10:58.395Z,1021.85
2018-03-21T01:11:24.530Z,1021.85
2018-03-21T01:11:50.669Z,1021.84
2018-03-21T01:12:16.803Z,1021.85
2018-03-21T01:12:42.932Z,1021.81
2018-03-21T01:13:09.066Z,1021.84
2018-03-21T01:13:35.209Z,1021.84
2018-03-21T01:14:01.341Z,1021.88
2018-03-21T01:14:27.482Z,1021.87
2018-03-21T01:14:53.610Z,1021.85
2018-03-21T01:15:19.752Z,1021.83
2018-03-21T01:15:45.874Z,1021.83
2018-03-21T01:16:12.012Z,1021.87
2018-03-21T01:16:38.147Z,1021.84
2018-03-21T01:17:04.279Z,1021.86
2018-03-21T01:17:30.436Z,1021.85
2018-03-21T01:17:56.574Z,1021.85
2018-03-21T01:18:22.708Z,1021.9
2018-03-21T01:18:48.841Z,1021.88
2018-03-21T01:19:14.980Z,1021.87
2018-03-21T01:19:41.112Z,1021.87
2018-03-21T01:20:07.249Z,1021.87
2018-03-21T01:20:33.380Z,1021.89
2018-03-21T01:20:59.513Z,1021.85
2018-03-21T01:21:25.649Z,1021.87
2018-03-21T01:21:51.809Z,1021.86
2018-03-21T01:22:17.946Z,1021.86
2018-03-21T01:22:44.088Z,1021.84
2018-03-21T01:23:10.225Z,1021.87
2018-03-21T01:23:36.383Z,1021.85
2018-03-21T01:24:02.516Z,1021.84
2018-03-21T01:24:28.653Z,1021.83
2018-03-21T01:24:54.786Z,1021.84
2018-03-21T01:25:20.926Z,1021.83
2018-03-21T01:25:47.081Z,1021.83
2018-03-21T01:26:13.218Z,1021.85
2018-03-21T01:26:39.381Z,1021.84
2018-03-21T01:27:05.542Z,1021.82
2018-03-21T01:27:31.679Z,1021.8
2018-03-21T01:27:57.821Z,1021.83
2018-03-21T01:28:23.976Z,1021.83
2018-03-21T01:28:50.114Z,1021.82
2018-03-21T01:29:16.251Z,1021.79
2018-03-21T01:29:42.378Z,1021.78
2018-03-21T01:30:08.517Z,1021.81
2018-03-21T01:30:34.655Z,1021.82
2018-03-21T01:31:00.795Z,1021.82
2018-03-21T01:31:26.924Z,1021.81
2018-03-21T01:31:53.059Z,1021.77
2018-03-21T01:32:19.192Z,1021.8
2018-03-21T01:32:45.334Z,1021.8
2018-03-21T01:33:11.515Z,1021.81
2018-03-21T01:33:37.649Z,1021.84
2018-03-21T01:34:03.796Z,1021.82
2018-03-21T01:34:29.923Z,1021.82
2018-03-21T01:34:56.060Z,1021.82
2018-03-21T01:35:22.216Z,1021.8
2018-03-21T01:35:48.365Z,1021.82
2018-03-21T01:36:14.512Z,1021.82
2018-03-21T01:36:40.654Z,1021.84
2018-03-21T01:37:06.781Z,1021.83
2018-03-21T01:37:32.919Z,1021.82
2018-03-21T01:37:59.056Z,1021.78
2018-03-21T01:38:25.192Z,1021.83
2018-03-21T01:38:51.347Z,1021.84
2018-03-21T01:39:17.482Z,1021.84
2018-03-21T01:39:43.612Z,1021.82
2018-03-21T01:40:09.745Z,1021.8
2018-03-21T01:40:35.886Z,1021.83
2018-03-21T01:41:02.067Z,1021.8
2018-03-21T01:41:28.203Z,1021.84
2018-03-21T01:41:54.363Z,1021.78
2018-03-21T01:42:20.496Z,1021.82
2018-03-21T01:42:46.626Z,1021.78
2018-03-21T01:43:12.763Z,1021.81
2018-03-21T01:43:38.902Z,1021.81
2018-03-21T01:44:05.060Z,1021.81
2018-03-21T01:44:31.217Z,1021.82
2018-03-21T01:44:57.377Z,1021.82
2018-03-21T01:45:23.535Z,1021.79
2018-03-21T01:45:49.672Z,1021.77
2018-03-21T01:46:15.806Z,1021.8
2018-03-21T01:46:41.936Z,1021.81
2018-03-21T01:47:08.070Z,1021.77
2018-03-21T01:47:34.205Z,1021.79
2018-03-21T01:48:00.347Z,1021.78
2018-03-21T01:48:26.499Z,1021.8
2018-03-21T01:48:52.638Z,1021.78
2018-03-21T01:49:18.770Z,1021.8
2018-03-21T01:49:44.907Z,1021.78
2018-03-21T01:50:11.064Z,1021.83
2018-03-21T01:50:37.195Z,1021.81
2018-03-21T01:51:03.333Z,1021.8
2018-03-21T01:51:29.461Z,1021.79
2018-03-21T01:51:55.596Z,1021.81
2018-03-21T01:52:21.763Z,1021.79
2018-03-21T01:52:47.894Z,1021.81
2018-03-21T01:53:14.032Z,1021.76
2018-03-21T01:53:40.168Z,1021.81
2018-03-21T01:54:06.311Z,1021.82
2018-03-21T01:54:32.471Z,1021.81
2018-03-21T01:54:58.634Z,1021.79
2018-03-21T01:55:24.765Z,1021.77
2018-03-21T01:55:50.904Z,1021.78
2018-03-21T01:56:17.035Z,1021.76
2018-03-21T01:56:43.170Z,1021.74
2018-03-21T01:57:09.301Z,1021.76
2018-03-21T01:57:35.442Z,1021.77
2018-03-21T01:58:01.599Z,1021.77
2018-03-21T01:58:27.734Z,1021.76
2018-03-21T01:58:53.867Z,1021.76
2018-03-21T01:59:20.002Z,1021.78
2018-03-21T01:59:46.143Z,1021.78
2018-03-21T02:00:12.291Z,1021.74
2018-03-21T02:00:38.420Z,1021.77
2018-03-21T02:01:04.547Z,1021.73
2018-03-21T02:01:30.711Z,1021.73
2018-03-21T02:01:56.855Z,1021.74
2018-03-21T02:02:23.010Z,1021.76
2018-03-21T02:02:49.160Z,1021.72
2018-03-21T02:03:15.333Z,1021.71
2018-03-21T02:03:41.487Z,1021.75
2018-03-21T02:04:07.629Z,1021.75
2018-03-21T02:04:33.763Z,1021.73
2018-03-21T02:04:59.895Z,1021.69
2018-03-21T02:05:26.030Z,1021.74
2018-03-21T02:05:52.161Z,1021.71
2018-03-21T02:06:18.302Z,1021.7
2018-03-21T02:06:44.435Z,1021.68
2018-03-21T02:07:10.571Z,1021.73
2018-03-21T02:07:36.726Z,1021.68
2018-03-21T02:08:02.867Z,1021.7
2018-03-21T02:08:29.020Z,1021.66
2018-03-21T02:08:55.162Z,1021.7
2018-03-21T02:09:21.294Z,1021.68
2018-03-21T02:09:47.420Z,1021.69
2018-03-21T02:10:13.550Z,1021.7
2018-03-21T02:10:39.712Z,1021.72
2018-03-21T02:11:05.847Z,1021.69
2018-03-21T02:11:31.991Z,1021.7
2018-03-21T02:11:58.148Z,1021.72
2018-03-21T02:12:24.280Z,1021.71
2018-03-21T02:12:50.415Z,1021.72
2018-03-21T02:13:16.551Z,1021.7
2018-03-21T02:13:42.685Z,1021.7
2018-03-21T02:14:08.816Z,1021.69
2018-03-21T02:14:34.946Z,1021.69
2018-03-21T02:15:01.083Z,1021.69
2018-03-21T02:15:27.222Z,1021.71
2018-03-21T02:15:53.357Z,1021.73
2018-03-21T02:16:19.488Z,1021.7
2018-03-21T02:16:45.623Z,1021.7
2018-03-21T02:17:11.759Z,1021.71
2018-03-21T02:17:37.900Z,1021.73
2018-03-21T02:18:04.027Z,1021.73
2018-03-21T02:18:30.161Z,1021.74
2018-03-21T02:18:56.298Z,1021.77
2018-03-21T02:19:22.431Z,1021.72
2018-03-21T02:19:48.567Z,1021.74
2018-03-21T02:20:14.696Z,1021.76
2018-03-21T02:20:40.833Z,1021.77
2018-03-21T02:21:06.971Z,1021.75
2018-03-21T02:21:33.134Z,1021.72
2018-03-21T02:21:59.288Z,1021.75
2018-03-21T02:22:25.439Z,1021.73
2018-03-21T02:22:51.578Z,1021.72
2018-03-21T02:23:17.729Z,1021.73
2018-03-21T02:23:43.862Z,1021.76
2018-03-21T02:24:10.000Z,1021.78
2018-03-21T02:24:36.135Z,1021.72
2018-03-21T02:25:02.275Z,1021.73
2018-03-21T02:25:28.411Z,1021.72
2018-03-21T02:25:54.547Z,1021.75
2018-03-21T02:26:20.683Z,1021.74
2018-03-21T02:26:46.819Z,1021.79
2018-03-21T02:27:12.955Z,1021.78
2018-03-21T02:27:39.091Z,1021.75
2018-03-21T02:28:05.224Z,1021.8
2018-03-21T02:28:31.361Z,1021.79
2018-03-21T02:28:57.512Z,1021.76
2018-03-21T02:29:23.650Z,1021.8
2018-03-21T02:29:49.793Z,1021.74
2018-03-21T02:30:15.925Z,1021.78
2018-03-21T02:30:42.091Z,1021.79
2018-03-21T02:31:08.249Z,1021.85
2018-03-21T02:31:34.387Z,1021.82
2018-03-21T02:32:00.542Z,1021.79
2018-03-21T02:32:26.700Z,1021.8
2018-03-21T02:32:52.833Z,1021.79
2018-03-21T02:33:18.977Z,1021.82
2018-03-21T02:33:45.130Z,1021.82
2018-03-21T02:34:11.291Z,1021.83
2018-03-21T02:34:37.426Z,1021.84
2018-03-21T02:35:03.588Z,1021.78
2018-03-21T02:35:29.731Z,1021.85
2018-03-21T02:35:55.855Z,1021.8
2018-03-21T02:36:21.987Z,1021.81
2018-03-21T02:36:48.121Z,1021.82
2018-03-21T02:37:14.264Z,1021.82
2018-03-21T02:37:40.432Z,1021.8
2018-03-21T02:38:06.533Z,1021.85
2018-03-21T02:38:32.675Z,1021.84
2018-03-21T02:38:58.806Z,1021.82
2018-03-21T02:39:24.949Z,1021.85
2018-03-21T02:39:51.081Z,1021.84
2018-03-21T02:40:17.220Z,1021.84
2018-03-21T02:40:43.351Z,1021.84
2018-03-21T02:41:09.483Z,1021.82
2018-03-21T02:41:35.614Z,1021.84
2018-03-21T02:42:01.749Z,1021.83
2018-03-21T02:42:27.882Z,1021.84
2018-03-21T02:42:54.021Z,1021.83
2018-03-21T02:43:20.155Z,1021.77
2018-03-21T02:43:46.288Z,1021.82
2018-03-21T02:44:12.431Z,1021.8
2018-03-21T02:44:38.588Z,1021.79
2018-03-21T02:45:04.785Z,1021.76
2018-03-21T02:45:30.862Z,1021.79
2018-03-21T02:45:56.997Z,1021.79
2018-03-21T02:46:23.153Z,1021.77
2018-03-21T02:46:49.290Z,1021.78
2018-03-21T02:47:15.428Z,1021.81
2018-03-21T02:47:41.587Z,1021.78
2018-03-21T02:48:07.725Z,1021.8
2018-03-21T02:48:33.860Z,1021.78
2018-03-21T02:49:00.007Z,1021.79
2018-03-21T02:49:26.148Z,1021.79
2018-03-21T02:49:52.284Z,1021.78
2018-03-21T02:50:18.440Z,1021.78
2018-03-21T02:50:44.580Z,1021.85
2018-03-21T02:51:10.702Z,1021.83
2018-03-21T02:51:36.841Z,1021.83
2018-03-21T02:52:02.976Z,1021.84
2018-03-21T02:52:29.116Z,1021.85
2018-03-21T02:52:55.246Z,1021.82
2018-03-21T02:53:21.388Z,1021.83
2018-03-21T02:53:47.519Z,1021.88
2018-03-21T02:54:13.654Z,1021.87
2018-03-21T02:54:39.791Z,1021.88
2018-03-21T02:55:05.948Z,1021.85
2018-03-21T02:55:32.083Z,1021.86
2018-03-21T02:55:58.221Z,1021.87
2018-03-21T02:56:24.357Z,1021.86
2018-03-21T02:56:50.513Z,1021.86
2018-03-21T02:57:16.643Z,1021.84
2018-03-21T02:57:42.778Z,1021.86
2018-03-21T02:58:08.917Z,1021.87
2018-03-21T02:58:35.054Z,1021.85
2018-03-21T02:59:01.188Z,1021.91
2018-03-21T02:59:27.325Z,1021.91
2018-03-21T02:59:53.451Z,1021.87
2018-03-21T03:00:19.586Z,1021.89
2018-03-21T03:00:45.728Z,1021.9
2018-03-21T03:01:11.882Z,1021.88
2018-03-21T03:01:38.017Z,1021.87
2018-03-21T03:02:04.145Z,1021.89
2018-03-21T03:02:30.283Z,1021.88
2018-03-21T03:02:56.449Z,1021.85
2018-03-21T03:03:22.588Z,1021.86
2018-03-21T03:03:48.720Z,1021.84
2018-03-21T03:04:14.855Z,1021.83
2018-03-21T03:04:41.005Z,1021.87
2018-03-21T03:05:07.147Z,1021.88
2018-03-21T03:05:33.272Z,1021.88
2018-03-21T03:05:59.410Z,1021.9
2018-03-21T03:06:25.550Z,1021.93
2018-03-21T03:06:51.692Z,1021.91
2018-03-21T03:07:17.844Z,1021.91
2018-03-21T03:07:43.999Z,1021.93
2018-03-21T03:08:10.156Z,1021.89
2018-03-21T03:08:36.289Z,1021.94
2018-03-21T03:09:02.429Z,1021.93
2018-03-21T03:09:28.606Z,1021.94
2018-03-21T03:09:54.730Z,1021.94
2018-03-21T03:10:20.872Z,1021.91
2018-03-21T03:10:47.007Z,1021.94
2018-03-21T03:11:13.164Z,1021.95
2018-03-21T03:11:39.302Z,1021.91
2018-03-21T03:12:05.433Z,1021.97
2018-03-21T03:12:31.571Z,1021.93
2018-03-21T03:12:57.702Z,1021.95
2018-03-21T03:13:23.837Z,1021.98
2018-03-21T03:13:49.973Z,1021.94
2018-03-21T03:14:16.132Z,1021.96
2018-03-21T03:14:42.264Z,1021.94
2018-03-21T03:15:08.404Z,1021.96
2018-03-21T03:15:34.541Z,1021.95
2018-03-21T03:16:00.680Z,1022
2018-03-21T03:16:26.817Z,1022.02
2018-03-21T03:16:52.948Z,1022.01
2018-03-21T03:17:19.110Z,1022.06
2018-03-21T03:17:45.245Z,1022.06
2018-03-21T03:18:11.387Z,1022.03
2018-03-21T03:18:37.519Z,1021.99
2018-03-21T03:19:03.653Z,1022.04
2018-03-21T03:19:29.787Z,1022
2018-03-21T03:19:55.918Z,1022
2018-03-21T03:20:22.047Z,1022.01
2018-03-21T03:20:48.189Z,1021.97
2018-03-21T03:21:14.323Z,1021.97
2018-03-21T03:21:40.459Z,1021.96
2018-03-21T03:22:06.613Z,1021.95
2018-03-21T03:22:32.760Z,1021.94
2018-03-21T03:22:58.891Z,1021.96
2018-03-21T03:23:25.027Z,1021.99
2018-03-21T03:23:51.165Z,1021.92
2018-03-21T03:24:17.296Z,1021.95
2018-03-21T03:24:43.430Z,1021.99
2018-03-21T03:25:09.566Z,1021.94
2018-03-21T03:25:35.702Z,1021.91
2018-03-21T03:26:01.863Z,1021.91
2018-03-21T03:26:27.999Z,1021.93
2018-03-21T03:26:54.134Z,1021.91
2018-03-21T03:27:20.270Z,1021.88
2018-03-21T03:27:46.401Z,1021.89
2018-03-21T03:28:12.538Z,1021.88
2018-03-21T03:28:38.673Z,1021.88
2018-03-21T03:29:04.811Z,1021.92
2018-03-21T03:29:30.945Z,1021.9
2018-03-21T03:29:57.104Z,1021.91
2018-03-21T03:30:23.244Z,1021.91
2018-03-21T03:30:49.408Z,1021.89
2018-03-21T03:31:15.537Z,1021.9
2018-03-21T03:31:41.674Z,1021.89
2018-03-21T03:32:07.804Z,1021.91
2018-03-21T03:32:33.945Z,1021.89
2018-03-21T03:33:00.079Z,1021.88
2018-03-21T03:33:26.213Z,1021.9
2018-03-21T03:33:52.346Z,1021.86
2018-03-21T03:34:18.486Z,1021.88
2018-03-21T03:34:44.643Z,1021.89
2018-03-21T03:35:10.778Z,1021.85
2018-03-21T03:35:36.940Z,1021.87
2018-03-21T03:36:03.069Z,1021.9
2018-03-21T03:36:29.209Z,1021.86
2018-03-21T03:36:55.343Z,1021.91
2018-03-21T03:37:21.474Z,1021.93
2018-03-21T03:37:47.599Z,1021.9
2018-03-21T03:38:13.741Z,1021.95
2018-03-21T03:38:39.883Z,1021.92
2018-03-21T03:39:06.009Z,1021.91
2018-03-21T03:39:32.181Z,1021.92
2018-03-21T03:39:58.306Z,1021.94
2018-03-21T03:40:24.437Z,1021.93
2018-03-21T03:40:50.568Z,1021.91
2018-03-21T03:41:16.708Z,1021.91
2018-03-21T03:41:42.834Z,1021.91
2018-03-21T03:42:08.989Z,1021.96
2018-03-21T03:42:35.125Z,1021.9
2018-03-21T03:43:01.265Z,1021.96
2018-03-21T03:43:27.402Z,1021.93
2018-03-21T03:43:53.537Z,1021.96
2018-03-21T03:44:19.671Z,1021.89
2018-03-21T03:44:45.811Z,1021.94
2018-03-21T03:45:11.947Z,1021.91
2018-03-21T03:45:38.086Z,1021.9
2018-03-21T03:46:04.220Z,1021.93
2018-03-21T03:46:30.351Z,1021.86
2018-03-21T03:46:56.480Z,1021.92
2018-03-21T03:47:22.632Z,1021.89
2018-03-21T03:47:48.766Z,1021.9
2018-03-21T03:48:14.925Z,1021.92
2018-03-21T03:48:41.040Z,1021.93
2018-03-21T03:49:07.180Z,1021.91
2018-03-21T03:49:33.336Z,1022
2018-03-21T03:49:59.451Z,1021.94
2018-03-21T03:50:25.583Z,1021.94
2018-03-21T03:50:51.723Z,1021.96
2018-03-21T03:51:17.852Z,1021.93
2018-03-21T03:51:43.990Z,1021.96
2018-03-21T03:52:10.155Z,1021.97
2018-03-21T03:52:36.288Z,1021.92
2018-03-21T03:53:02.423Z,1021.93
2018-03-21T03:53:28.597Z,1021.95
2018-03-21T03:53:54.699Z,1021.99
2018-03-21T03:54:20.827Z,1021.97
2018-03-21T03:54:46.962Z,1021.94
2018-03-21T03:55:13.099Z,1021.96
2018-03-21T03:55:39.230Z,1021.97
2018-03-21T03:56:05.363Z,1021.97
2018-03-21T03:56:31.500Z,1021.94
2018-03-21T03:56:57.631Z,1021.96
2018-03-21T03:57:23.770Z,1021.98
2018-03-21T03:57:49.901Z,1021.93
2018-03-21T03:58:16.059Z,1021.96
2018-03-21T03:58:42.199Z,1021.92
2018-03-21T03:59:08.339Z,1021.97
2018-03-21T03:59:34.468Z,1021.97
2018-03-21T04:00:00.606Z,1021.97
2018-03-21T04:00:26.741Z,1021.95
2018-03-21T04:00:52.873Z,1021.97
2018-03-21T04:01:19.007Z,1021.95
2018-03-21T04:01:45.145Z,1021.98
2018-03-21T04:02:11.287Z,1021.94
2018-03-21T04:02:37.408Z,1021.99
2018-03-21T04:03:03.565Z,1021.96
2018-03-21T04:03:29.716Z,1021.98
2018-03-21T04:03:55.854Z,1021.93
2018-03-21T04:04:21.989Z,1021.94
2018-03-21T04:04:48.126Z,1021.96
2018-03-21T04:05:14.257Z,1021.95
2018-03-21T04:05:40.393Z,1021.95
2018-03-21T04:06:06.527Z,1021.91
2018-03-21T04:06:32.665Z,1021.93
2018-03-21T04:06:58.798Z,1021.95
2018-03-21T04:07:24.931Z,1021.96
2018-03-21T04:07:51.074Z,1021.93
2018-03-21T04:08:17.213Z,1021.92
2018-03-21T04:08:43.346Z,1021.95
2018-03-21T04:09:09.478Z,1021.93
2018-03-21T04:09:35.613Z,1021.92
2018-03-21T04:10:01.772Z,1021.94
2018-03-21T04:10:27.928Z,1021.96
2018-03-21T04:10:54.068Z,1021.96
2018-03-21T04:11:20.199Z,1021.99
2018-03-21T04:11:46.357Z,1021.97
2018-03-21T04:12:12.496Z,1021.98
2018-03-21T04:12:38.632Z,1021.94
2018-03-21T04:13:04.770Z,1021.94
2018-03-21T04:13:30.903Z,1021.95
2018-03-21T04:13:57.045Z,1021.98
2018-03-21T04:14:23.182Z,1021.96
2018-03-21T04:14:49.333Z,1021.97
2018-03-21T04:15:15.460Z,1021.94
2018-03-21T04:15:41.601Z,1021.95
2018-03-21T04:16:07.768Z,1022.01
2018-03-21T04:16:33.901Z,1021.96
2018-03-21T04:17:00.033Z,1021.97
2018-03-21T04:17:26.176Z,1021.96
2018-03-21T04:17:52.315Z,1021.97
2018-03-21T04:18:18.448Z,1022.02
2018-03-21T04:18:44.580Z,1021.97
2018-03-21T04:19:10.708Z,1021.95
2018-03-21T04:19:36.842Z,1021.98
2018-03-21T04:20:02.983Z,1022.02
2018-03-21T04:20:29.121Z,1021.99
2018-03-21T04:20:55.285Z,1022.01
2018-03-21T04:21:21.419Z,1022.03
2018-03-21T04:21:47.555Z,1022.05
2018-03-21T04:22:13.681Z,1022.02
2018-03-21T04:22:39.816Z,1021.99
2018-03-21T04:23:05.946Z,1021.99
2018-03-21T04:23:32.101Z,1022.01
2018-03-21T04:23:58.241Z,1021.99
2018-03-21T04:24:24.367Z,1021.98
2018-03-21T04:24:50.501Z,1021.98
2018-03-21T04:25:16.635Z,1021.99
2018-03-21T04:25:42.770Z,1021.98
2018-03-21T04:26:08.912Z,1021.97
2018-03-21T04:26:35.038Z,1021.99
2018-03-21T04:27:01.205Z,1022
2018-03-21T04:27:27.339Z,1022.01
2018-03-21T04:27:53.497Z,1021.96
2018-03-21T04:28:19.631Z,1022
2018-03-21T04:28:45.763Z,1021.99
2018-03-21T04:29:11.924Z,1021.99
2018-03-21T04:29:38.061Z,1021.99
2018-03-21T04:30:04.190Z,1022.01
2018-03-21T04:30:30.325Z,1021.99
2018-03-21T04:30:56.465Z,1021.95
2018-03-21T04:31:22.598Z,1021.99
2018-03-21T04:31:48.735Z,1021.96
2018-03-21T04:32:14.868Z,1021.97
2018-03-21T04:32:41.006Z,1021.97
2018-03-21T04:33:07.154Z,1022.02
2018-03-21T04:33:33.280Z,1021.97
2018-03-21T04:33:59.414Z,1021.95
2018-03-21T04:34:25.554Z,1022
2018-03-21T04:34:51.680Z,1021.94
2018-03-21T04:35:17.839Z,1021.97
2018-03-21T04:35:43.975Z,1021.96
2018-03-21T04:36:10.154Z,1021.98
2018-03-21T04:36:36.291Z,1022
2018-03-21T04:37:02.431Z,1021.98
2018-03-21T04:37:28.564Z,1022
2018-03-21T04:37:54.704Z,1022.02
2018-03-21T04:38:20.840Z,1022.03
2018-03-21T04:38:46.978Z,1021.99
2018-03-21T04:39:13.106Z,1022.02
2018-03-21T04:39:39.239Z,1022.02
2018-03-21T04:40:05.373Z,1022.03
2018-03-21T04:40:31.510Z,1022.05
2018-03-21T04:40:57.646Z,1022.04
2018-03-21T04:41:23.804Z,1022.05
2018-03-21T04:41:49.943Z,1022.01
2018-03-21T04:42:16.076Z,1022
2018-03-21T04:42:42.214Z,1022.02
2018-03-21T04:43:08.356Z,1022.02
2018-03-21T04:43:34.485Z,1021.99
2018-03-21T04:44:00.614Z,1021.99
2018-03-21T04:44:26.777Z,1022.03
2018-03-21T04:44:52.910Z,1021.97
2018-03-21T04:45:19.043Z,1022.03
2018-03-21T04:45:45.179Z,1022
2018-03-21T04:46:11.338Z,1021.98
2018-03-21T04:46:37.471Z,1021.95
2018-03-21T04:47:03.612Z,1021.97
2018-03-21T04:47:29.745Z,1021.98
2018-03-21T04:47:55.881Z,1022
2018-03-21T04:48:22.016Z,1021.99
2018-03-21T04:48:48.170Z,1021.91
2018-03-21T04:49:14.333Z,1021.97
2018-03-21T04:49:40.464Z,1021.96
2018-03-21T04:50:06.598Z,1021.96
2018-03-21T04:50:32.734Z,1021.92
2018-03-21T04:50:58.926Z,1021.93
2018-03-21T04:51:25.060Z,1021.96
2018-03-21T04:51:51.192Z,1021.96
2018-03-21T04:52:17.330Z,1021.96
2018-03-21T04:52:43.472Z,1021.95
2018-03-21T04:53:09.601Z,1021.95
2018-03-21T04:53:35.732Z,1021.96
2018-03-21T04:54:01.863Z,1021.94
2018-03-21T04:54:28.002Z,1021.94
2018-03-21T04:54:54.134Z,1021.93
2018-03-21T04:55:20.268Z,1021.97
2018-03-21T04:55:46.427Z,1021.93
2018-03-21T04:56:12.563Z,1021.92
2018-03-21T04:56:38.695Z,1021.94
2018-03-21T04:57:04.829Z,1021.91
2018-03-21T04:57:30.964Z,1021.92
2018-03-21T04:57:57.101Z,1021.94
2018-03-21T04:58:23.235Z,1021.93
2018-03-21T04:58:49.372Z,1021.95
2018-03-21T04:59:15.535Z,1021.95
2018-03-21T04:59:41.695Z,1021.95
2018-03-21T05:00:07.831Z,1021.91
2018-03-21T05:00:33.971Z,1021.97
2018-03-21T05:01:00.106Z,1021.93
2018-03-21T05:01:26.240Z,1021.92
2018-03-21T05:01:52.414Z,1021.89
2018-03-21T05:02:18.519Z,1021.89
2018-03-21T05:02:44.657Z,1021.92
2018-03-21T05:03:10.792Z,1021.91
2018-03-21T05:03:36.916Z,1021.92
2018-03-21T05:04:03.056Z,1021.87
2018-03-21T05:04:29.190Z,1021.9
2018-03-21T05:04:55.325Z,1021.91
2018-03-21T05:05:21.456Z,1021.88
2018-03-21T05:05:47.592Z,1021.9
2018-03-21T05:06:13.758Z,1021.86
2018-03-21T05:06:39.884Z,1021.91
2018-03-21T05:07:06.022Z,1021.94
2018-03-21T05:07:32.154Z,1021.93
2018-03-21T05:07:58.289Z,1021.93
2018-03-21T05:08:24.483Z,1021.88
2018-03-21T05:08:50.582Z,1021.91
2018-03-21T05:09:16.718Z,1021.87
2018-03-21T05:09:42.847Z,1021.92
2018-03-21T05:10:08.988Z,1021.9
2018-03-21T05:10:35.125Z,1021.88
2018-03-21T05:11:01.284Z,1021.89
2018-03-21T05:11:27.440Z,1021.9
2018-03-21T05:11:53.577Z,1021.93
2018-03-21T05:12:19.711Z,1021.9
2018-03-21T05:12:45.878Z,1021.92
2018-03-21T05:13:12.032Z,1021.92
2018-03-21T05:13:38.165Z,1021.95
2018-03-21T05:14:04.295Z,1021.98
2018-03-21T05:14:30.431Z,1021.93
2018-03-21T05:14:56.566Z,1021.92
2018-03-21T05:15:22.700Z,1021.91
2018-03-21T05:15:48.836Z,1021.96
2018-03-21T05:16:14.968Z,1021.92
2018-03-21T05:16:41.107Z,1021.93
2018-03-21T05:17:07.264Z,1021.95
2018-03-21T05:17:33.413Z,1021.94